createdAt,value
2022-09-09T00:00:17.998Z,17.50
2022-09-09T00:03:12.030Z,17.60
2022-09-09T00:05:53.164Z,17.50
2022-09-09T00:08:24.511Z,17.50
2022-09-09T00:10:59.959Z,17.60
2022-09-09T00:13:42.469Z,17.50
2022-09-09T00:16:25.523Z,17.40
2022-09-09T00:19:01.355Z,17.30
2022-09-09T00:21:33.909Z,17.30
2022-09-09T00:24:09.216Z,17.30
2022-09-09T00:26:48.038Z,17.30
2022-09-09T00:29:33.945Z,17.20
2022-09-09T00:32:12.782Z,17.20
2022-09-09T00:34:54.525Z,17.20
2022-09-09T00:37:23.264Z,17.20
2022-09-09T00:39:53.046Z,17.20
2022-09-09T00:44:56.666Z,17.20
2022-09-09T00:47:50.684Z,17.30
2022-09-09T00:50:30.656Z,17.30
2022-09-09T00:53:19.365Z,17.30
2022-09-09T00:56:06.152Z,17.40
2022-09-09T00:58:33.430Z,17.30
2022-09-09T01:01:12.043Z,17.30
2022-09-09T01:03:48.646Z,17.40
2022-09-09T01:06:41.693Z,17.40
2022-09-09T01:09:16.550Z,17.30
2022-09-09T01:14:31.796Z,17.20
2022-09-09T01:17:06.794Z,17.20
2022-09-09T01:19:56.521Z,17.20
2022-09-09T01:22:40.800Z,17.20
2022-09-09T01:25:19.674Z,17.20
2022-09-09T01:27:49.365Z,17.10
2022-09-09T01:30:18.286Z,17.10
2022-09-09T01:32:51.989Z,17.00
2022-09-09T01:35:31.152Z,17.00
2022-09-09T01:37:57.794Z,17.00
2022-09-09T01:40:25.772Z,17.00
2022-09-09T01:42:53.444Z,16.90
2022-09-09T01:45:20.549Z,16.80
2022-09-09T01:50:17.093Z,16.70
2022-09-09T01:52:47.697Z,16.70
2022-09-09T01:55:15.034Z,16.70
2022-09-09T01:57:53.314Z,16.80
2022-09-09T02:00:20.698Z,16.80
2022-09-09T02:03:01.831Z,16.90
2022-09-09T02:06:09.823Z,16.90
2022-09-09T02:08:55.956Z,17.10
2022-09-09T02:11:25.474Z,17.10
2022-09-09T02:14:01.669Z,17.10
2022-09-09T02:16:46.939Z,17.10
2022-09-09T02:21:43.373Z,17.10
2022-09-09T02:26:42.936Z,17.10
2022-09-09T02:29:22.204Z,17.10
2022-09-09T02:31:51.412Z,17.10
2022-09-09T02:34:21.407Z,17.10
2022-09-09T02:36:50.599Z,17.10
2022-09-09T02:39:17.382Z,17.10
2022-09-09T02:44:20.337Z,17.10
2022-09-09T02:47:08.286Z,17.10
2022-09-09T02:50:12.819Z,17.20
2022-09-09T02:53:02.628Z,17.10
2022-09-09T02:55:45.580Z,17.10
2022-09-09T02:58:17.811Z,17.20
2022-09-09T03:00:49.659Z,17.10
2022-09-09T03:03:18.226Z,17.10
2022-09-09T03:05:45.979Z,17.20
2022-09-09T03:08:14.062Z,17.10
2022-09-09T03:10:40.849Z,17.10
2022-09-09T03:15:34.964Z,17.10
2022-09-09T03:20:31.033Z,17.10
2022-09-09T03:22:59.802Z,17.10
2022-09-09T03:27:55.142Z,17.10
2022-09-09T03:30:23.472Z,17.10
2022-09-09T03:40:12.309Z,17.10
2022-09-09T03:42:39.796Z,17.10
2022-09-09T03:45:10.063Z,17.10
2022-09-09T03:50:07.099Z,17.10
2022-09-09T03:52:36.371Z,16.90
2022-09-09T03:55:03.203Z,17.10
2022-09-09T03:57:30.908Z,17.10
2022-09-09T04:02:25.556Z,17.10
2022-09-09T04:04:52.737Z,17.10
2022-09-09T04:07:19.356Z,17.10
2022-09-09T04:09:45.969Z,17.10
2022-09-09T04:12:14.171Z,17.10
2022-09-09T04:14:40.884Z,17.10
2022-09-09T04:19:34.669Z,17.20
2022-09-09T04:22:01.326Z,17.10
2022-09-09T04:26:56.676Z,17.10
2022-09-09T04:29:23.297Z,17.10
2022-09-09T04:44:05.414Z,17.40
2022-09-09T04:48:59.161Z,17.40
2022-09-09T04:53:54.827Z,17.30
2022-09-09T04:56:21.757Z,17.40
2022-09-09T05:06:12.537Z,17.40
2022-09-09T05:08:40.597Z,17.40
2022-09-09T05:28:30.233Z,17.40
2022-09-09T05:38:47.156Z,16.70
2022-09-09T05:41:16.520Z,16.70
2022-09-09T05:48:43.762Z,16.50
2022-09-09T05:53:40.349Z,16.70
2022-09-09T05:56:11.657Z,16.60
2022-09-09T06:01:11.230Z,16.70
2022-09-09T06:13:34.062Z,16.90
2022-09-09T06:26:11.795Z,17.30
2022-09-09T06:31:08.274Z,17.20
2022-09-09T06:46:02.048Z,17.20
2022-09-09T06:51:12.330Z,17.30
2022-09-09T06:56:18.683Z,17.30
2022-09-09T07:06:25.279Z,17.50
2022-09-09T07:08:57.078Z,17.60
2022-09-09T07:11:26.763Z,17.90
2022-09-09T07:21:19.913Z,18.60
2022-09-09T07:26:16.541Z,18.80
2022-09-09T07:36:18.646Z,18.80
2022-09-09T07:41:25.668Z,18.70
2022-09-09T07:48:52.876Z,19.30
2022-09-09T07:51:26.302Z,19.40
2022-09-09T07:58:53.255Z,19.70
2022-09-09T08:01:30.880Z,19.80
2022-09-09T08:08:58.102Z,19.90
2022-09-09T08:21:24.332Z,19.60
2022-09-09T08:44:13.536Z,20.60
2022-09-09T08:47:05.465Z,20.80
2022-09-09T08:49:43.747Z,20.80
2022-09-09T08:57:32.509Z,20.60
2022-09-09T09:00:00.499Z,20.50
2022-09-09T09:15:43.083Z,21.20
2022-09-09T09:23:24.706Z,21.90
2022-09-09T09:28:29.914Z,21.60
2022-09-09T09:31:06.847Z,21.30
2022-09-09T09:36:09.570Z,20.60
2022-09-09T09:41:31.085Z,20.20
2022-09-09T09:51:34.876Z,20.60
2022-09-09T09:54:14.212Z,20.70
2022-09-09T09:59:38.581Z,20.60
2022-09-09T10:05:27.543Z,20.70
2022-09-09T10:14:11.457Z,21.40
2022-09-09T10:16:45.183Z,21.50
2022-09-09T10:24:40.558Z,21.20
2022-09-09T10:27:35.566Z,21.10
2022-09-09T10:32:46.640Z,20.90
2022-09-09T10:40:34.032Z,20.60
2022-09-09T10:43:24.667Z,20.70
2022-09-09T10:46:25.213Z,21.00
2022-09-09T10:48:57.436Z,21.30
2022-09-09T10:51:27.929Z,21.50
2022-09-09T10:54:13.168Z,21.70
2022-09-09T10:56:57.684Z,21.80
2022-09-09T10:59:29.862Z,21.80
2022-09-09T11:04:28.035Z,21.70
2022-09-09T11:06:58.790Z,21.80
2022-09-09T11:09:31.274Z,21.70
2022-09-09T11:11:59.282Z,21.70
2022-09-09T11:14:44.813Z,21.60
2022-09-09T11:17:16.404Z,21.70
2022-09-09T11:19:44.905Z,21.80
2022-09-09T11:22:30.474Z,22.00
2022-09-09T11:25:17.439Z,22.30
2022-09-09T11:28:23.304Z,22.30
2022-09-09T11:31:08.470Z,22.30
2022-09-09T11:34:09.357Z,22.30
2022-09-09T11:36:48.127Z,22.10
2022-09-09T11:39:59.364Z,22.00
2022-09-09T11:42:26.183Z,22.00
2022-09-09T11:44:57.671Z,22.00
2022-09-09T11:49:55.035Z,22.10
2022-09-09T11:54:50.422Z,22.10
2022-09-09T11:57:33.473Z,22.10
2022-09-09T12:00:00.996Z,22.30
2022-09-09T12:02:32.120Z,22.40
2022-09-09T12:05:13.255Z,22.30
2022-09-09T12:07:48.515Z,22.10
2022-09-09T12:10:30.486Z,22.00
2022-09-09T12:13:22.941Z,22.00
2022-09-09T12:15:54.230Z,21.80
2022-09-09T12:18:26.467Z,21.60
2022-09-09T12:21:13.146Z,21.30
2022-09-09T12:23:49.184Z,21.20
2022-09-09T12:26:28.031Z,21.30
2022-09-09T12:29:25.420Z,21.60
2022-09-09T12:31:59.296Z,21.90
2022-09-09T12:34:28.915Z,22.20
2022-09-09T12:37:04.004Z,22.30
2022-09-09T12:39:39.557Z,22.40
2022-09-09T12:44:33.524Z,22.10
2022-09-09T12:47:04.587Z,21.90
2022-09-09T12:49:39.408Z,21.60
2022-09-09T12:52:14.032Z,21.40
2022-09-09T12:54:47.671Z,21.30
2022-09-09T12:57:15.621Z,21.30
2022-09-09T12:59:46.270Z,21.50
2022-09-09T13:02:24.219Z,21.60
2022-09-09T13:04:51.660Z,22.00
2022-09-09T13:07:19.921Z,22.50
2022-09-09T13:09:47.702Z,23.10
2022-09-09T13:12:23.576Z,23.40
2022-09-09T13:14:54.338Z,23.30
2022-09-09T13:17:30.010Z,23.10
2022-09-09T13:22:30.162Z,22.50
2022-09-09T13:25:04.968Z,22.30
2022-09-09T13:27:35.283Z,22.20
2022-09-09T13:30:03.078Z,22.10
2022-09-09T13:32:30.354Z,22.20
2022-09-09T13:35:03.648Z,22.40
2022-09-09T13:37:38.708Z,22.60
2022-09-09T13:40:20.073Z,22.70
2022-09-09T13:45:24.097Z,22.70
2022-09-09T13:47:56.153Z,22.80
2022-09-09T13:52:54.035Z,22.70
2022-09-09T13:55:25.111Z,22.90
2022-09-09T13:57:57.387Z,23.10
2022-09-09T14:00:25.144Z,23.30
2022-09-09T14:02:52.271Z,23.30
2022-09-09T14:05:20.454Z,23.00
2022-09-09T14:10:20.226Z,22.70
2022-09-09T14:15:15.471Z,22.40
2022-09-09T14:20:12.637Z,22.00
2022-09-09T14:27:36.769Z,21.30
2022-09-09T14:30:05.456Z,21.30
2022-09-09T14:37:26.477Z,21.00
2022-09-09T14:39:53.267Z,20.90
2022-09-09T14:44:47.193Z,20.70
2022-09-09T14:49:42.658Z,19.50
2022-09-09T14:54:38.963Z,18.50
2022-09-09T14:57:05.631Z,18.10
2022-09-09T15:02:01.675Z,18.00
2022-09-09T15:04:28.648Z,18.00
2022-09-09T15:06:55.261Z,18.00
2022-09-09T15:09:21.914Z,18.20
2022-09-09T15:11:48.614Z,18.40
2022-09-09T15:14:15.256Z,18.60
2022-09-09T15:16:42.230Z,18.70
2022-09-09T15:21:38.661Z,19.00
2022-09-09T15:24:08.247Z,19.10
2022-09-09T15:26:35.276Z,19.10
2022-09-09T15:29:02.056Z,19.30
2022-09-09T15:31:31.318Z,19.30
2022-09-09T15:34:02.221Z,19.40
2022-09-09T15:36:32.887Z,19.50
2022-09-09T15:39:04.006Z,19.50
2022-09-09T15:41:32.547Z,19.40
2022-09-09T15:46:33.903Z,19.30
2022-09-09T15:49:11.496Z,19.50
2022-09-09T15:51:44.965Z,19.50
2022-09-09T15:54:18.364Z,19.50
2022-09-09T15:56:47.397Z,19.40
2022-09-09T16:09:06.796Z,18.60
2022-09-09T16:11:36.594Z,18.60
2022-09-09T16:14:04.961Z,18.60
2022-09-09T16:16:32.196Z,18.60
2022-09-09T16:19:01.818Z,18.60
2022-09-09T16:21:34.062Z,18.60
2022-09-09T16:24:03.344Z,18.50
2022-09-09T16:26:32.861Z,18.40
2022-09-09T16:29:00.496Z,18.10
2022-09-09T16:31:28.710Z,18.00
2022-09-09T16:33:55.719Z,18.00
2022-09-09T16:36:25.535Z,17.90
2022-09-09T16:39:01.685Z,18.00
2022-09-09T16:41:29.845Z,18.10
2022-09-09T16:47:00.538Z,18.30
2022-09-09T16:51:59.246Z,18.50
2022-09-09T16:54:27.840Z,18.60
2022-09-09T16:56:54.552Z,18.60
2022-09-09T16:59:22.600Z,18.40
2022-09-09T17:04:21.826Z,18.10
2022-09-09T17:06:52.811Z,18.10
2022-09-09T17:09:20.932Z,18.00
2022-09-09T17:11:51.343Z,18.00
2022-09-09T17:14:19.926Z,17.90
2022-09-09T17:22:05.845Z,17.70
2022-09-09T17:24:29.951Z,17.60
2022-09-09T17:29:23.907Z,17.50
2022-09-09T17:34:17.838Z,17.40
2022-09-09T17:39:11.556Z,17.40
2022-09-09T17:41:40.669Z,17.40
2022-09-09T17:46:42.303Z,17.40
2022-09-09T17:49:12.866Z,17.40
2022-09-09T17:51:42.243Z,17.30
2022-09-09T17:54:15.154Z,17.30
2022-09-09T17:59:10.788Z,17.20
2022-09-09T18:04:08.840Z,17.20
2022-09-09T18:09:13.331Z,17.20
2022-09-09T18:11:45.874Z,17.20
2022-09-09T18:14:17.807Z,17.20
2022-09-09T18:16:45.200Z,17.20
2022-09-09T18:19:14.095Z,17.20
2022-09-09T18:21:42.829Z,17.20
2022-09-09T18:24:11.550Z,17.20
2022-09-09T18:29:09.823Z,17.20
2022-09-09T18:31:40.014Z,17.20
2022-09-09T18:34:09.960Z,17.20
2022-09-09T18:36:41.189Z,17.20
2022-09-09T18:39:09.201Z,17.20
2022-09-09T18:41:47.143Z,17.10
2022-09-09T18:44:17.378Z,17.00
2022-09-09T18:49:12.655Z,17.00
2022-09-09T18:51:41.155Z,16.90
2022-09-09T18:59:08.691Z,16.80
2022-09-09T19:01:35.998Z,16.80
2022-09-09T19:04:04.651Z,16.70
2022-09-09T19:06:32.690Z,16.70
2022-09-09T19:14:03.907Z,16.50
2022-09-09T19:16:33.753Z,16.50
2022-09-09T19:26:30.344Z,16.60
2022-09-09T19:31:27.905Z,16.40
2022-09-09T19:36:24.115Z,16.20
2022-09-09T19:38:52.715Z,16.10
2022-09-09T19:41:23.169Z,16.10
2022-09-09T19:53:44.331Z,16.00
2022-09-09T19:56:11.175Z,15.90
2022-09-09T19:58:45.412Z,16.00
2022-09-09T20:01:17.542Z,15.90
2022-09-09T20:03:46.197Z,15.90
2022-09-09T20:06:15.438Z,15.90
2022-09-09T20:08:45.955Z,16.00
2022-09-09T20:11:13.313Z,15.90
2022-09-09T20:13:40.787Z,15.90
2022-09-09T20:16:19.527Z,16.00
2022-09-09T20:18:50.918Z,15.90
2022-09-09T20:23:49.032Z,15.90
2022-09-09T20:28:45.028Z,15.90
2022-09-09T20:33:44.129Z,16.10
2022-09-09T20:36:22.728Z,16.10
2022-09-09T20:38:52.985Z,16.10
2022-09-09T20:43:54.200Z,16.10
2022-09-09T20:46:26.167Z,16.20
2022-09-09T20:54:08.617Z,16.30
2022-09-09T20:56:39.225Z,16.30
2022-09-09T20:59:07.508Z,16.30
2022-09-09T21:04:01.771Z,16.30
2022-09-09T21:11:24.015Z,16.30
2022-09-09T21:21:21.159Z,16.20
2022-09-09T21:23:48.992Z,16.20
2022-09-09T21:31:15.212Z,16.10
2022-09-09T21:33:42.910Z,16.10
2022-09-09T21:46:14.650Z,15.90
2022-09-09T21:51:12.596Z,15.90
2022-09-09T21:53:39.715Z,15.80
2022-09-09T21:56:09.878Z,15.80
2022-09-09T21:58:37.387Z,15.90
2022-09-09T22:01:15.526Z,15.90
2022-09-09T22:03:42.732Z,15.80
2022-09-09T22:06:15.720Z,15.80
2022-09-09T22:11:23.031Z,15.80
2022-09-09T22:13:49.938Z,15.80
2022-09-09T22:16:19.087Z,15.80
2022-09-09T22:18:51.478Z,15.80
2022-09-09T22:26:17.719Z,15.80
2022-09-09T22:31:11.473Z,15.80
2022-09-09T22:33:38.246Z,15.80
2022-09-09T22:38:34.668Z,15.90
2022-09-09T22:41:02.887Z,15.90
2022-09-09T22:43:30.099Z,15.80
2022-09-09T22:55:59.326Z,15.50
2022-09-09T22:58:27.665Z,15.40
2022-09-09T23:06:04.145Z,15.50
2022-09-09T23:08:36.392Z,15.50
2022-09-09T23:11:11.126Z,15.40
2022-09-09T23:13:43.082Z,15.50
2022-09-09T23:16:18.357Z,15.60
2022-09-09T23:18:45.553Z,15.60
2022-09-09T23:21:14.595Z,15.70
2022-09-09T23:23:43.068Z,15.70
2022-09-09T23:26:11.863Z,15.80
2022-09-09T23:28:41.858Z,15.70
2022-09-09T23:31:12.927Z,15.70
2022-09-09T23:33:40.956Z,15.70
2022-09-09T23:36:11.414Z,15.70
2022-09-09T23:38:39.399Z,15.70
2022-09-09T23:41:08.683Z,15.70
2022-09-09T23:43:45.026Z,15.80
2022-09-09T23:46:13.920Z,15.80
2022-09-09T23:51:11.870Z,15.80
2022-09-09T23:53:40.798Z,15.80
2022-09-09T23:56:07.509Z,15.80
2022-09-09T23:58:34.779Z,15.80
